Portada
METAR-TAF:

METAR-TAF

Aeropuertos :

Agaña, Guam, Estados Unidos

Aeropuerto Internacional Antonio B. Won Pat

latitud: 13-29N, longitud: 144-48E, altitud: 91 m

Observación

El informe se hizo hace 41 minutos, a las 19:54 UTC
Viento 4 kt del sureste
Temperatura 27°C
Humedad 94%
Presión 1012 hPa
Visibilidad: 16.1 km
Nubes dispersas a una altura de 1800 ft
Nubes dispersas a una altura de 2600 ft

METAR: PGUM 271954Z 13004KT 10SM SCT018 SCT026 27/26 A2989 RMK AO2 SLP113 T02670256 $

Hora: 06:35 (20:35 UTC)

Pronóstico

El informe se hizo hace 3 horas y 8 minutos, a las 17:27 UTC
Pronóstico válido del 27 a las 18 UTC al 28 a las 24 UTC
Viento 8 kt del este-sureste
Visibilidad: 10 km
Escasas nubes a una altura de 1700 ft
Nubes dispersas a una altura de 5000 ft
Nubes dispersas a una altura de 11000 ft
chaparrones en las proximidades

TAF: PGUM 271727Z 2718/2824 12008KT P6SM VCSH FEW017 SCT050 SCT110

Observaciones y pronósticos meteorológicos de más de 4000 aeropuertos (mensajes METAR y TAF).

Los puntos amarillos y rojos representan las estaciones disponibles.

Ponga el ratón en el punto deseado para ver el nombre de la estación.

Haga clic para ver las observaciones y los pronósticos meteorológicos.

Para cambiar el mapa : haga clic en los botones verdes con una cruz de color negro para hacer un zoom, en el botón verde con un guión para alejar o en las flechas verdes para mapas adyacentes.


METAR-TAF: